San Jose Del Cabo, Mexique

10:53 MDT le 23 juillet 2016 (GMT -0600)
El Zacatal | | Change Station

Alt. 128 ft 23.10 °N, 109.71 °W | Updated 8 minutes ago

Rain
Pluie
81.3 ° F
Paraît 88 ° F
N
3.0
Vent Variable Vent de NO
Gusts 5.0 mph

Aujourd'hui
Haut(e) -- | Bas -- ° F
--% Risque de précip.
Hier
Haut(e) -- | Bas -- ° F
Precip. -- pouce
Pression 30.00 pouce
Visibilité 6.0 Miles terrestres
Nuages Nuages épars 3000 ft
Nuageux 12000 ft
Nuageux 22000 ft
indice de chaleur 88 ° F
Point de rosée 77 ° F
Humidité 85%
Précipitations 0.05 pouce
Profondeur de la couche neigeuse Non disponible.
6:45 AM 8:04 PM
Lune gibbeuse décroissante, 84% visible
SPECI MMSL 231617Z 07015KT 6SM RA SCT030CB BKN120 BKN220 28/23 A3000 RMK 8/368 RA BE17
Pression 30.00 pouce
Visibilité 6.0 Miles terrestres
Nuages Nuages épars 3000 ft
Nuageux 12000 ft
Nuageux 22000 ft
indice de chaleur 88 ° F
Point de rosée 77 ° F
Humidité 85%
Précipitations 0.05 pouce
Profondeur de la couche neigeuse Non disponible.
6:45 AM 8:04 PM
Lune gibbeuse décroissante, 84% visible
SPECI MMSL 231617Z 07015KT 6SM RA SCT030CB BKN120 BKN220 28/23 A3000 RMK 8/368 RA BE17

10-Day Weather Forecast

No radar image for this location.
×

Almanac

Astronomie

Jul. 23, 2016 Lever Coucher
Temps réel
Crépuscule civil
Crépuscule nautique
Crépuscule astronomique
Lune
Durée de lumière visible
Longueur du jour
Tomorrow will be .
, % of the Moon is Illuminated

Extrêmes aujourd'hui

Country Highs Country Lows

Community

WunderPhotos

Upload Photos

1,926,861 Photos téléchargées !

WunderBlog® & News

Nearby

Qualité de l'air

  Qualité de l'air Indice de la qualité de l'air Polluant
Not available.

Épaisseur de neige

Station Depth Altitude

Activité sismique

Ville Distance Mag. Time & Date
Minimum magnitude displayed is 2.5.

Températures des eaux côtières

Lieu Température

Stations

Stations météo à proximité

Emplacement de la station Température Refroidissement éolien Point de rosée Humidité Vent Precip. Alt. Mise à jour Type